createdAt,value
2017-07-08T00:01:30.328Z,88.31
2017-07-08T00:02:30.972Z,88.41
2017-07-08T00:03:31.615Z,88.22
2017-07-08T00:04:32.262Z,88.41
2017-07-08T00:06:16.406Z,88.02
2017-07-08T00:07:17.049Z,88.41
2017-07-08T00:08:17.792Z,88.22
2017-07-08T00:09:18.437Z,88.51
2017-07-08T00:11:02.579Z,88.22
2017-07-08T00:12:03.223Z,88.22
2017-07-08T00:13:03.867Z,88.22
2017-07-08T00:14:04.514Z,88.22
2017-07-08T00:15:48.657Z,88.02
2017-07-08T00:16:49.502Z,88.22
2017-07-08T00:17:50.145Z,88.22
2017-07-08T00:18:50.790Z,88.89
2017-07-08T00:20:34.990Z,88.22
2017-07-08T00:21:35.635Z,88.02
2017-07-08T00:22:36.278Z,88.70
2017-07-08T00:23:36.924Z,88.12
2017-07-08T00:25:21.268Z,88.12
2017-07-08T00:26:21.913Z,88.22
2017-07-08T00:27:22.554Z,88.02
2017-07-08T00:28:23.200Z,88.12
2017-07-08T00:30:07.292Z,88.31
2017-07-08T00:31:07.937Z,88.70
2017-07-08T00:32:08.580Z,88.70
2017-07-08T00:33:09.227Z,88.41
2017-07-08T00:34:53.572Z,88.41
2017-07-08T00:35:54.215Z,88.12
2017-07-08T00:36:54.858Z,88.41
2017-07-08T00:37:55.505Z,88.22
2017-07-08T00:39:39.649Z,88.22
2017-07-08T00:40:40.294Z,88.51
2017-07-08T00:41:41.186Z,88.51
2017-07-08T00:42:41.831Z,88.31
2017-07-08T00:44:26.031Z,88.51
2017-07-08T00:45:26.675Z,88.60
2017-07-08T00:46:27.318Z,88.31
2017-07-08T00:47:27.965Z,88.51
2017-07-08T00:49:12.108Z,88.70
2017-07-08T00:50:12.954Z,88.51
2017-07-08T00:51:13.595Z,88.79
2017-07-08T00:52:14.239Z,88.89
2017-07-08T00:53:58.380Z,88.12
2017-07-08T00:54:59.024Z,88.31
2017-07-08T00:55:59.667Z,88.70
2017-07-08T00:57:00.314Z,88.70
2017-07-08T00:58:44.607Z,88.22
2017-07-08T00:59:45.253Z,88.41
2017-07-08T01:00:45.893Z,88.22
2017-07-08T01:01:46.538Z,88.31
2017-07-08T01:03:30.684Z,88.70
2017-07-08T01:04:31.325Z,88.51
2017-07-08T01:05:31.971Z,88.70
2017-07-08T01:06:32.814Z,88.89
2017-07-08T01:08:16.959Z,88.70
2017-07-08T01:09:17.601Z,88.60
2017-07-08T01:10:18.244Z,88.70
2017-07-08T01:11:18.891Z,88.70
2017-07-08T01:13:03.084Z,88.51
2017-07-08T01:14:03.728Z,88.31
2017-07-08T01:15:04.569Z,88.70
2017-07-08T01:16:05.214Z,88.70
2017-07-08T01:17:49.356Z,88.41
2017-07-08T01:18:50.001Z,88.60
2017-07-08T01:19:50.644Z,88.70
2017-07-08T01:20:51.291Z,88.89
2017-07-08T01:22:35.434Z,89.09
2017-07-08T01:23:36.229Z,89.09
2017-07-08T01:24:36.870Z,88.89
2017-07-08T01:25:37.515Z,88.89
2017-07-08T01:27:21.658Z,88.99
2017-07-08T01:28:22.301Z,89.09
2017-07-08T01:29:22.946Z,89.37
2017-07-08T01:30:23.591Z,88.89
2017-07-08T01:32:07.935Z,89.09
2017-07-08T01:33:08.579Z,89.37
2017-07-08T01:34:09.222Z,89.18
2017-07-08T01:35:09.871Z,89.47
2017-07-08T01:36:54.014Z,89.76
2017-07-08T01:37:54.657Z,89.67
2017-07-08T01:38:55.300Z,89.86
2017-07-08T01:39:56.147Z,89.57
2017-07-08T01:41:40.289Z,90.24
2017-07-08T01:42:40.934Z,89.57
2017-07-08T01:43:41.577Z,89.86
2017-07-08T01:44:42.223Z,89.09
2017-07-08T01:46:26.366Z,89.86
2017-07-08T01:47:27.013Z,88.89
2017-07-08T01:48:27.805Z,89.57
2017-07-08T01:49:28.450Z,89.09
2017-07-08T01:51:12.593Z,89.37
2017-07-08T01:52:13.236Z,88.99
2017-07-08T01:53:13.882Z,89.37
2017-07-08T01:54:14.527Z,89.47
2017-07-08T01:55:58.670Z,88.99
2017-07-08T01:56:59.665Z,88.79
2017-07-08T01:58:00.305Z,88.99
2017-07-08T01:59:00.951Z,88.99
2017-07-08T02:00:45.098Z,88.79
2017-07-08T02:01:45.739Z,88.89
2017-07-08T02:02:46.383Z,88.99
2017-07-08T02:03:47.030Z,88.89
2017-07-08T02:05:31.374Z,88.89
2017-07-08T02:06:32.019Z,89.37
2017-07-08T02:07:32.661Z,89.18
2017-07-08T02:08:33.309Z,89.09
2017-07-08T02:10:17.461Z,88.89
2017-07-08T02:11:18.106Z,89.18
2017-07-08T02:12:18.750Z,89.18
2017-07-08T02:13:19.693Z,88.70
2017-07-08T02:15:03.836Z,88.89
2017-07-08T02:16:04.480Z,89.18
2017-07-08T02:17:05.123Z,88.89
2017-07-08T02:18:05.770Z,88.99
2017-07-08T02:19:49.915Z,89.18
2017-07-08T02:20:50.559Z,89.18
2017-07-08T02:21:51.401Z,88.89
2017-07-08T02:22:52.046Z,88.89
2017-07-08T02:24:36.187Z,88.70
2017-07-08T02:25:36.832Z,88.99
2017-07-08T02:26:37.476Z,88.79
2017-07-08T02:27:38.122Z,88.89
2017-07-08T02:29:22.266Z,88.60
2017-07-08T02:30:23.209Z,88.99
2017-07-08T02:31:23.853Z,88.70
2017-07-08T02:32:24.499Z,88.60
2017-07-08T02:34:08.642Z,88.89
2017-07-08T02:35:09.286Z,88.99
2017-07-08T02:36:09.929Z,88.79
2017-07-08T02:37:10.576Z,88.89
2017-07-08T02:38:54.870Z,88.89
2017-07-08T02:39:55.514Z,89.09
2017-07-08T02:40:56.157Z,88.79
2017-07-08T02:41:56.804Z,88.60
2017-07-08T02:43:40.948Z,89.09
2017-07-08T02:44:41.592Z,89.09
2017-07-08T02:45:42.235Z,89.09
2017-07-08T02:46:43.081Z,88.89
2017-07-08T02:48:27.223Z,88.51
2017-07-08T02:49:27.868Z,88.60
2017-07-08T02:50:28.511Z,88.41
2017-07-08T02:51:29.158Z,88.70
2017-07-08T02:53:13.301Z,88.89
2017-07-08T02:54:13.945Z,88.79
2017-07-08T02:55:14.788Z,88.79
2017-07-08T02:56:15.433Z,88.70
2017-07-08T02:57:59.574Z,88.89
2017-07-08T02:59:00.218Z,88.79
2017-07-08T03:00:00.861Z,89.28
2017-07-08T03:01:01.509Z,89.09
2017-07-08T03:02:45.652Z,88.79
2017-07-08T03:03:46.495Z,88.51
2017-07-08T03:04:47.138Z,88.99
2017-07-08T03:05:47.782Z,89.37
2017-07-08T03:07:31.923Z,88.89
2017-07-08T03:08:32.568Z,89.37
2017-07-08T03:09:33.211Z,88.89
2017-07-08T03:10:33.857Z,89.09
2017-07-08T03:12:18.202Z,88.89
2017-07-08T03:13:18.846Z,88.89
2017-07-08T03:14:19.489Z,89.18
2017-07-08T03:15:20.136Z,89.18
2017-07-08T03:17:04.330Z,88.79
2017-07-08T03:18:04.975Z,88.60
2017-07-08T03:19:05.617Z,89.09
2017-07-08T03:20:06.518Z,89.18
2017-07-08T03:21:50.662Z,89.18
2017-07-08T03:22:51.306Z,88.89
2017-07-08T03:23:51.949Z,88.99
2017-07-08T03:24:52.596Z,88.60
2017-07-08T03:26:36.739Z,88.51
2017-07-08T03:27:37.384Z,89.18
2017-07-08T03:28:38.177Z,88.70
2017-07-08T03:29:38.823Z,88.99
2017-07-08T03:31:22.964Z,88.99
2017-07-08T03:32:23.609Z,89.18
2017-07-08T03:33:24.252Z,88.99
2017-07-08T03:34:24.898Z,89.37
2017-07-08T03:36:09.243Z,88.99
2017-07-08T03:37:09.889Z,89.18
2017-07-08T03:38:10.529Z,89.18
2017-07-08T03:39:11.186Z,89.18
2017-07-08T03:40:55.314Z,88.89
2017-07-08T03:41:55.958Z,89.18
2017-07-08T03:42:56.602Z,89.09
2017-07-08T03:43:57.249Z,89.18
2017-07-08T03:45:41.592Z,89.09
2017-07-08T03:46:42.237Z,88.99
2017-07-08T03:47:42.880Z,89.47
2017-07-08T03:48:43.527Z,89.37
2017-07-08T03:50:27.676Z,89.09
2017-07-08T03:51:28.320Z,88.89
2017-07-08T03:52:28.962Z,89.37
2017-07-08T03:53:29.808Z,88.79
2017-07-08T03:55:13.950Z,89.57
2017-07-08T03:56:14.594Z,89.09
2017-07-08T03:57:15.238Z,89.86
2017-07-08T03:58:15.884Z,89.37
2017-07-08T04:00:00.031Z,88.99
2017-07-08T04:01:00.675Z,88.89
2017-07-08T04:02:01.467Z,89.47
2017-07-08T04:03:02.112Z,89.47
2017-07-08T04:04:46.254Z,89.47
2017-07-08T04:05:46.901Z,88.70
2017-07-08T04:06:47.542Z,89.47
2017-07-08T04:07:48.188Z,88.89
2017-07-08T04:09:32.632Z,88.99
2017-07-08T04:10:33.274Z,89.28
2017-07-08T04:11:33.918Z,88.70
2017-07-08T04:12:34.563Z,89.57
2017-07-08T04:14:18.707Z,89.67
2017-07-08T04:15:19.352Z,89.37
2017-07-08T04:16:19.995Z,89.28
2017-07-08T04:17:20.644Z,89.57
2017-07-08T04:19:04.936Z,89.09
2017-07-08T04:20:05.580Z,89.37
2017-07-08T04:21:06.224Z,89.57
2017-07-08T04:22:06.875Z,89.18
2017-07-08T04:23:51.013Z,89.09
2017-07-08T04:24:51.656Z,89.18
2017-07-08T04:25:52.300Z,89.28
2017-07-08T04:26:53.149Z,89.86
2017-07-08T04:28:37.289Z,89.37
2017-07-08T04:29:37.934Z,89.67
2017-07-08T04:30:38.577Z,89.18
2017-07-08T04:31:39.223Z,89.67
2017-07-08T04:33:23.366Z,89.57
2017-07-08T04:34:24.211Z,88.70
2017-07-08T04:35:24.853Z,89.28
2017-07-08T04:36:25.497Z,89.37
2017-07-08T04:38:09.639Z,89.28
2017-07-08T04:39:10.282Z,89.28
2017-07-08T04:40:10.925Z,89.18
2017-07-08T04:41:11.573Z,89.37
2017-07-08T04:42:55.816Z,89.37
2017-07-08T04:43:56.459Z,89.47
2017-07-08T04:44:57.102Z,89.47
2017-07-08T04:45:57.746Z,88.89
2017-07-08T04:47:41.838Z,89.18
2017-07-08T04:48:42.482Z,89.37
2017-07-08T04:49:43.127Z,89.76
2017-07-08T04:50:43.775Z,89.37
2017-07-08T04:52:28.115Z,89.09
2017-07-08T04:53:28.758Z,88.99
2017-07-08T04:54:29.403Z,89.18
2017-07-08T04:55:30.049Z,88.51
2017-07-08T04:57:14.192Z,89.18
2017-07-08T04:58:14.837Z,88.70
2017-07-08T04:59:15.681Z,88.89
2017-07-08T05:00:16.383Z,88.99
2017-07-08T05:02:00.526Z,89.28
2017-07-08T05:03:01.171Z,89.18
2017-07-08T05:04:01.814Z,89.18
2017-07-08T05:05:02.462Z,89.18
2017-07-08T05:06:46.607Z,89.47
2017-07-08T05:07:47.448Z,89.47
2017-07-08T05:08:48.091Z,89.47
2017-07-08T05:09:48.734Z,89.47
2017-07-08T05:11:32.875Z,89.57
2017-07-08T05:12:33.519Z,89.37
2017-07-08T05:13:34.163Z,90.15
2017-07-08T05:14:34.809Z,89.37
2017-07-08T05:16:19.202Z,89.37
2017-07-08T05:17:19.847Z,89.57
2017-07-08T05:18:20.503Z,88.99
2017-07-08T05:19:21.139Z,89.09
2017-07-08T05:21:05.337Z,89.09
2017-07-08T05:22:05.980Z,89.28
2017-07-08T05:23:06.623Z,89.67
2017-07-08T05:24:07.270Z,89.47
2017-07-08T05:25:51.665Z,89.43
2017-07-08T05:26:52.309Z,89.67
2017-07-08T05:27:52.953Z,89.72
2017-07-08T05:28:53.602Z,89.76
2017-07-08T05:30:37.742Z,89.47
2017-07-08T05:31:38.385Z,90.10
2017-07-08T05:32:39.279Z,90.00
2017-07-08T05:33:39.924Z,89.43
2017-07-08T05:35:24.065Z,89.81
2017-07-08T05:36:24.710Z,89.86
2017-07-08T05:37:25.352Z,89.72
2017-07-08T05:38:25.998Z,90.00
2017-07-08T05:40:10.146Z,89.47
2017-07-08T05:41:10.939Z,89.95
2017-07-08T05:42:11.580Z,89.53
2017-07-08T05:43:12.225Z,89.72
2017-07-08T05:44:56.367Z,90.15
2017-07-08T05:45:57.011Z,90.10
2017-07-08T05:46:57.654Z,89.81
2017-07-08T05:47:58.301Z,89.53
2017-07-08T05:49:42.643Z,89.67
2017-07-08T05:50:43.290Z,89.62
2017-07-08T05:51:43.931Z,89.67
2017-07-08T05:52:44.575Z,90.05
2017-07-08T05:54:28.674Z,89.86
2017-07-08T05:55:29.311Z,89.67
2017-07-08T05:56:29.955Z,90.39
2017-07-08T05:57:30.949Z,90.20
2017-07-08T05:59:15.094Z,89.67
2017-07-08T06:00:15.737Z,89.72
2017-07-08T06:01:16.380Z,89.76
2017-07-08T06:02:17.026Z,89.47
2017-07-08T06:04:01.170Z,89.95
2017-07-08T06:05:01.813Z,89.09
2017-07-08T06:06:02.607Z,90.00
2017-07-08T06:07:03.252Z,89.47
2017-07-08T06:08:47.394Z,89.76
2017-07-08T06:09:48.037Z,89.47
2017-07-08T06:10:48.680Z,90.24
2017-07-08T06:11:49.326Z,89.86
2017-07-08T06:13:33.469Z,89.67
2017-07-08T06:14:34.314Z,89.47
2017-07-08T06:15:34.956Z,89.47
2017-07-08T06:16:35.600Z,89.57
2017-07-08T06:18:19.741Z,90.34
2017-07-08T06:19:20.385Z,89.72
2017-07-08T06:20:21.029Z,89.76
2017-07-08T06:21:21.675Z,90.05
2017-07-08T06:23:06.019Z,89.86
2017-07-08T06:24:06.664Z,89.86
2017-07-08T06:25:07.307Z,89.95
2017-07-08T06:26:07.967Z,90.44
2017-07-08T06:27:52.097Z,90.05
2017-07-08T06:28:52.741Z,90.15
2017-07-08T06:29:53.384Z,89.62
2017-07-08T06:30:54.331Z,90.24
2017-07-08T06:32:38.473Z,89.37
2017-07-08T06:33:39.117Z,89.95
2017-07-08T06:34:39.760Z,90.24
2017-07-08T06:35:40.407Z,90.44
2017-07-08T06:37:24.554Z,89.86
2017-07-08T06:38:25.200Z,90.05
2017-07-08T06:39:26.093Z,89.18
2017-07-08T06:40:26.740Z,88.95
2017-07-08T06:42:10.883Z,89.37
2017-07-08T06:43:11.527Z,89.18
2017-07-08T06:44:12.170Z,89.67
2017-07-08T06:45:12.817Z,89.18
2017-07-08T06:46:56.960Z,89.57
2017-07-08T06:47:57.804Z,89.47
2017-07-08T06:48:58.453Z,90.24
2017-07-08T06:49:59.097Z,89.86
2017-07-08T06:51:43.238Z,89.57
2017-07-08T06:52:43.882Z,89.57
2017-07-08T06:53:44.525Z,89.37
2017-07-08T06:54:45.171Z,88.89
2017-07-08T06:56:29.616Z,89.57
2017-07-08T06:57:30.262Z,89.86
2017-07-08T06:58:30.904Z,89.57
2017-07-08T06:59:31.553Z,89.67
2017-07-08T07:01:15.690Z,89.67
2017-07-08T07:02:16.334Z,89.57
2017-07-08T07:03:16.978Z,89.37
2017-07-08T07:04:17.775Z,89.37
2017-07-08T07:06:01.916Z,89.95
2017-07-08T07:07:02.559Z,89.18
2017-07-08T07:08:03.203Z,89.28
2017-07-08T07:09:03.849Z,89.76
2017-07-08T07:10:47.992Z,89.28
2017-07-08T07:11:48.636Z,88.79
2017-07-08T07:12:49.484Z,89.37
2017-07-08T07:13:50.183Z,88.89
2017-07-08T07:15:34.326Z,88.99
2017-07-08T07:16:34.971Z,89.37
2017-07-08T07:17:35.614Z,89.47
2017-07-08T07:18:36.260Z,89.18
2017-07-08T07:20:20.405Z,89.37
2017-07-08T07:21:21.198Z,89.09
2017-07-08T07:22:21.839Z,89.37
2017-07-08T07:23:22.488Z,88.89
2017-07-08T07:25:06.627Z,89.18
2017-07-08T07:26:07.274Z,89.37
2017-07-08T07:27:07.913Z,89.18
2017-07-08T07:28:08.560Z,89.37
2017-07-08T07:29:52.904Z,89.57
2017-07-08T07:30:53.547Z,89.37
2017-07-08T07:31:54.194Z,89.47
2017-07-08T07:32:54.837Z,89.76
2017-07-08T07:34:38.980Z,89.57
2017-07-08T07:35:39.624Z,89.18
2017-07-08T07:36:40.220Z,88.89
2017-07-08T07:37:41.112Z,88.89
2017-07-08T07:39:25.259Z,88.99
2017-07-08T07:40:25.901Z,89.09
2017-07-08T07:41:26.543Z,88.89
2017-07-08T07:42:27.190Z,89.18
2017-07-08T07:44:11.333Z,89.18
2017-07-08T07:45:11.977Z,88.60
2017-07-08T07:46:12.821Z,88.99
2017-07-08T07:47:13.465Z,88.89
2017-07-08T07:48:57.614Z,88.60
2017-07-08T07:49:58.257Z,88.79
2017-07-08T07:50:58.902Z,89.09
2017-07-08T07:51:59.561Z,89.18
2017-07-08T07:53:43.754Z,89.18
2017-07-08T07:54:44.500Z,88.51
2017-07-08T07:55:45.137Z,88.70
2017-07-08T07:56:45.783Z,88.70
2017-07-08T07:58:29.925Z,89.37
2017-07-08T07:59:30.569Z,88.60
2017-07-08T08:00:31.212Z,88.70
2017-07-08T08:01:31.859Z,89.18
2017-07-08T08:03:16.203Z,88.89
2017-07-08T08:04:16.848Z,88.99
2017-07-08T08:05:17.492Z,89.09
2017-07-08T08:06:18.139Z,88.51
2017-07-08T08:08:02.282Z,88.89
2017-07-08T08:09:02.927Z,89.18
2017-07-08T08:10:03.571Z,88.89
2017-07-08T08:11:04.369Z,88.60
2017-07-08T08:12:48.512Z,89.23
2017-07-08T08:13:49.214Z,88.70
2017-07-08T08:14:49.857Z,88.79
2017-07-08T08:15:50.504Z,88.70
2017-07-08T08:17:34.647Z,88.75
2017-07-08T08:18:35.291Z,88.75
2017-07-08T08:19:36.135Z,88.07
2017-07-08T08:20:36.781Z,88.26
2017-07-08T08:22:20.929Z,88.36
2017-07-08T08:23:21.567Z,88.45
2017-07-08T08:24:22.211Z,88.84
2017-07-08T08:25:22.859Z,88.26
2017-07-08T08:27:07.253Z,88.36
2017-07-08T08:28:07.902Z,89.71
2017-07-08T08:29:08.550Z,89.32
2017-07-08T08:30:09.200Z,88.75
2017-07-08T08:31:53.348Z,88.93
2017-07-08T08:32:53.996Z,88.45
2017-07-08T08:33:54.641Z,88.45
2017-07-08T08:34:55.290Z,88.84
2017-07-08T08:36:39.587Z,88.93
2017-07-08T08:37:40.234Z,89.13
2017-07-08T08:38:40.880Z,89.23
2017-07-08T08:39:41.529Z,88.98
2017-07-08T08:41:25.675Z,88.59
2017-07-08T08:42:26.322Z,88.40
2017-07-08T08:43:26.968Z,88.79
2017-07-08T08:44:27.818Z,88.79
2017-07-08T08:46:11.966Z,88.59
2017-07-08T08:47:12.613Z,88.02
2017-07-08T08:48:13.259Z,88.40
2017-07-08T08:49:13.908Z,88.21
2017-07-08T08:50:58.054Z,88.40
2017-07-08T08:51:58.701Z,88.11
2017-07-08T08:52:59.547Z,88.50
2017-07-08T08:54:00.198Z,88.31
2017-07-08T08:55:45.498Z,88.59
2017-07-08T08:56:46.146Z,88.50
2017-07-08T08:57:46.791Z,88.79
2017-07-08T08:58:47.442Z,88.79
2017-07-08T09:00:31.786Z,88.31
2017-07-08T09:01:32.437Z,88.40
2017-07-08T09:02:33.085Z,88.40
2017-07-08T09:03:33.735Z,87.44
2017-07-08T09:05:17.882Z,87.82
2017-07-08T09:06:18.531Z,88.02
2017-07-08T09:07:19.177Z,87.73
2017-07-08T09:08:19.826Z,87.92
2017-07-08T09:10:04.122Z,87.73
2017-07-08T09:11:04.770Z,87.05
2017-07-08T09:12:05.417Z,87.05
2017-07-08T09:13:06.066Z,87.34
2017-07-08T09:14:50.211Z,87.05
2017-07-08T09:15:50.858Z,86.96
2017-07-08T09:16:51.505Z,86.76
2017-07-08T09:17:52.357Z,86.96
2017-07-08T09:19:36.504Z,86.57
2017-07-08T09:20:37.151Z,86.38
2017-07-08T09:21:37.797Z,86.38
2017-07-08T09:22:38.447Z,86.47
2017-07-08T09:24:22.593Z,86.18
2017-07-08T09:25:23.442Z,85.99
2017-07-08T09:26:24.091Z,86.57
2017-07-08T09:27:24.742Z,86.08
2017-07-08T09:29:08.889Z,86.18
2017-07-08T09:30:09.538Z,86.57
2017-07-08T09:31:10.183Z,86.38
2017-07-08T09:32:10.833Z,86.47
2017-07-08T09:33:55.129Z,86.86
2017-07-08T09:34:55.780Z,86.47
2017-07-08T09:35:56.428Z,86.08
2017-07-08T09:36:57.079Z,85.89
2017-07-08T09:38:41.227Z,85.31
2017-07-08T09:39:41.875Z,85.80
2017-07-08T09:40:42.520Z,85.41
2017-07-08T09:41:43.171Z,85.45
2017-07-08T09:43:27.468Z,85.74
2017-07-08T09:44:28.116Z,85.64
2017-07-08T09:45:28.763Z,85.70
2017-07-08T09:46:29.411Z,85.41
2017-07-08T09:48:13.557Z,85.80
2017-07-08T09:49:14.204Z,85.70
2017-07-08T09:50:15.053Z,85.60
2017-07-08T09:51:15.706Z,85.70
2017-07-08T09:52:59.852Z,86.28
2017-07-08T09:54:00.499Z,85.99
2017-07-08T09:55:01.145Z,86.18
2017-07-08T09:56:01.795Z,86.47
2017-07-08T09:57:45.942Z,86.18
2017-07-08T09:58:46.791Z,85.60
2017-07-08T09:59:47.439Z,86.18
2017-07-08T10:00:48.090Z,86.18
2017-07-08T10:02:32.240Z,86.47
2017-07-08T10:03:32.944Z,86.86
2017-07-08T10:04:33.589Z,86.66
2017-07-08T10:05:34.239Z,86.66
2017-07-08T10:07:18.533Z,86.96
2017-07-08T10:08:19.185Z,87.73
2017-07-08T10:09:19.830Z,87.63
2017-07-08T10:10:20.478Z,87.24
2017-07-08T10:12:04.624Z,88.31
2017-07-08T10:13:05.272Z,87.92
2017-07-08T10:14:05.918Z,87.92
2017-07-08T10:15:06.567Z,88.40
2017-07-08T10:16:50.917Z,88.50
2017-07-08T10:17:51.621Z,88.11
2017-07-08T10:18:52.263Z,88.40
2017-07-08T10:19:52.913Z,88.21
2017-07-08T10:21:37.058Z,88.11
2017-07-08T10:22:37.757Z,88.31
2017-07-08T10:23:38.549Z,88.31
2017-07-08T10:24:39.198Z,88.59
2017-07-08T10:26:23.343Z,88.59
2017-07-08T10:27:23.989Z,88.31
2017-07-08T10:28:24.637Z,88.89
2017-07-08T10:29:25.285Z,88.31
2017-07-08T10:31:09.431Z,89.07
2017-07-08T10:32:10.278Z,88.79
2017-07-08T10:33:10.926Z,88.98
2017-07-08T10:34:11.577Z,88.75
2017-07-08T10:35:55.725Z,88.59
2017-07-08T10:36:56.372Z,88.40
2017-07-08T10:37:57.020Z,88.98
2017-07-08T10:38:57.670Z,89.17
2017-07-08T10:40:42.071Z,88.50
2017-07-08T10:41:42.714Z,87.82
2017-07-08T10:42:43.363Z,88.11
2017-07-08T10:43:44.014Z,87.15
2017-07-08T10:45:28.161Z,87.48
2017-07-08T10:46:28.808Z,87.09
2017-07-08T10:47:29.456Z,86.32
2017-07-08T10:48:30.307Z,86.07
2017-07-08T10:50:14.457Z,85.98
2017-07-08T10:51:15.103Z,85.40
2017-07-08T10:52:15.752Z,85.01
2017-07-08T10:53:16.402Z,84.43
2017-07-08T10:55:00.549Z,84.28
2017-07-08T10:56:01.197Z,83.22
2017-07-08T10:57:02.046Z,83.41
2017-07-08T10:58:02.699Z,82.45
2017-07-08T10:59:46.847Z,82.10
2017-07-08T11:00:47.496Z,81.52
2017-07-08T11:01:48.144Z,81.62
2017-07-08T11:02:48.795Z,81.04
2017-07-08T11:04:32.943Z,80.84
2017-07-08T11:05:33.741Z,80.94
2017-07-08T11:06:34.390Z,80.84
2017-07-08T11:07:35.042Z,81.13
2017-07-08T11:09:19.190Z,80.74
2017-07-08T11:10:19.839Z,80.36
2017-07-08T11:11:20.487Z,80.46
2017-07-08T11:12:21.139Z,79.97
2017-07-08T11:14:05.593Z,80.36
2017-07-08T11:15:06.243Z,80.55
2017-07-08T11:16:06.891Z,81.23
2017-07-08T11:17:07.543Z,81.19
2017-07-08T11:18:51.690Z,81.52
2017-07-08T11:19:52.340Z,81.67
2017-07-08T11:20:52.990Z,81.48
2017-07-08T11:21:53.839Z,81.29
2017-07-08T11:23:37.992Z,81.87
2017-07-08T11:24:38.641Z,82.15
2017-07-08T11:25:39.291Z,81.67
2017-07-08T11:26:39.938Z,81.96
2017-07-08T11:28:24.088Z,81.67
2017-07-08T11:29:24.736Z,81.87
2017-07-08T11:30:25.535Z,82.15
2017-07-08T11:31:26.184Z,81.77
2017-07-08T11:33:10.331Z,82.35
2017-07-08T11:34:10.979Z,82.45
2017-07-08T11:35:11.627Z,82.69
2017-07-08T11:36:12.278Z,82.40
2017-07-08T11:37:56.426Z,83.03
2017-07-08T11:38:57.424Z,82.83
2017-07-08T11:39:58.124Z,82.83
2017-07-08T11:40:58.774Z,82.40
2017-07-08T11:42:42.921Z,82.69
2017-07-08T11:43:43.569Z,82.79
2017-07-08T11:44:44.216Z,82.79
2017-07-08T11:45:44.867Z,82.50
2017-07-08T11:47:29.216Z,82.60
2017-07-08T11:48:29.865Z,82.89
2017-07-08T11:49:30.514Z,82.69
2017-07-08T11:50:31.162Z,82.98
2017-07-08T11:52:15.329Z,82.79
2017-07-08T11:53:15.959Z,82.69
2017-07-08T11:54:16.606Z,82.79
2017-07-08T11:55:17.457Z,82.79
2017-07-08T11:57:01.606Z,83.08
2017-07-08T11:58:02.254Z,82.98
2017-07-08T11:59:02.901Z,82.79
2017-07-08T12:00:03.552Z,82.50
2017-07-08T12:01:47.701Z,82.40
2017-07-08T12:02:48.350Z,82.35
2017-07-08T12:03:49.248Z,82.21
2017-07-08T12:04:49.901Z,82.15
2017-07-08T12:06:34.050Z,81.96
2017-07-08T12:07:34.699Z,82.15
2017-07-08T12:08:35.347Z,81.87
2017-07-08T12:09:35.998Z,81.29
2017-07-08T12:11:20.146Z,80.99
2017-07-08T12:12:20.995Z,80.99
2017-07-08T12:13:21.647Z,80.46
2017-07-08T12:14:22.300Z,80.46
2017-07-08T12:16:06.450Z,79.87
2017-07-08T12:17:07.099Z,79.49
2017-07-08T12:18:07.748Z,79.68
2017-07-08T12:19:08.399Z,79.29
2017-07-08T12:20:52.748Z,79.10
2017-07-08T12:21:53.398Z,78.85
2017-07-08T12:22:54.046Z,78.75
2017-07-08T12:23:54.698Z,78.75
2017-07-08T12:25:38.852Z,78.36
2017-07-08T12:26:39.500Z,77.98
2017-07-08T12:27:40.145Z,77.82
2017-07-08T12:28:41.050Z,77.34
2017-07-08T12:30:25.201Z,76.66
2017-07-08T12:31:25.851Z,75.89
2017-07-08T12:32:26.503Z,75.63
2017-07-08T12:33:27.157Z,75.24
2017-07-08T12:35:11.308Z,75.15
2017-07-08T12:36:11.958Z,75.24
2017-07-08T12:37:12.809Z,74.70
2017-07-08T12:38:13.465Z,74.80
2017-07-08T12:39:57.618Z,74.60
2017-07-08T12:40:58.218Z,74.66
2017-07-08T12:41:58.870Z,75.24
2017-07-08T12:42:59.523Z,75.24
2017-07-08T12:44:43.673Z,75.15
2017-07-08T12:45:44.525Z,75.44
2017-07-08T12:46:45.177Z,75.63
2017-07-08T12:47:45.831Z,75.34
2017-07-08T12:49:29.984Z,76.56
2017-07-08T12:50:30.637Z,76.37
2017-07-08T12:51:31.283Z,76.66
2017-07-08T12:52:31.936Z,76.76
2017-07-08T12:54:16.287Z,76.76
2017-07-08T12:55:16.938Z,76.95
2017-07-08T12:56:17.587Z,77.34
2017-07-08T12:57:18.240Z,76.86
2017-07-08T12:59:02.389Z,77.05
2017-07-08T13:00:03.046Z,77.24
2017-07-08T13:01:03.697Z,77.34
2017-07-08T13:02:04.550Z,76.66
2017-07-08T13:03:48.702Z,76.56
2017-07-08T13:04:49.353Z,76.86
2017-07-08T13:05:50.001Z,76.66
2017-07-08T13:06:50.661Z,76.37
2017-07-08T13:08:34.863Z,76.46
2017-07-08T13:09:35.514Z,76.02
2017-07-08T13:10:36.364Z,76.21
2017-07-08T13:11:37.018Z,76.51
2017-07-08T13:13:21.172Z,76.37
2017-07-08T13:14:21.820Z,75.83
2017-07-08T13:15:22.470Z,75.92
2017-07-08T13:16:23.123Z,76.02
2017-07-08T13:18:07.272Z,76.02
2017-07-08T13:19:08.125Z,75.83
2017-07-08T13:20:08.776Z,75.54
2017-07-08T13:21:09.431Z,75.34
2017-07-08T13:22:53.583Z,75.44
2017-07-08T13:23:54.233Z,75.15
2017-07-08T13:24:54.883Z,74.96
2017-07-08T13:25:55.536Z,74.96
2017-07-08T13:27:39.886Z,75.24
2017-07-08T13:28:40.542Z,74.96
2017-07-08T13:29:41.186Z,74.96
2017-07-08T13:30:41.838Z,75.24
2017-07-08T13:32:25.989Z,74.76
2017-07-08T13:33:26.642Z,74.90
2017-07-08T13:34:27.293Z,74.60
2017-07-08T13:35:28.098Z,73.93
2017-07-08T13:37:12.250Z,73.64
2017-07-08T13:38:12.902Z,73.73
2017-07-08T13:39:13.556Z,74.41
2017-07-08T13:40:14.204Z,74.22
2017-07-08T13:41:58.354Z,74.22
2017-07-08T13:42:59.005Z,74.22
2017-07-08T13:43:59.855Z,74.22
2017-07-08T13:45:00.510Z,74.51
2017-07-08T13:46:44.613Z,74.51
2017-07-08T13:47:45.268Z,74.76
2017-07-08T13:48:45.917Z,74.76
2017-07-08T13:49:46.571Z,74.57
2017-07-08T13:51:30.921Z,74.57
2017-07-08T13:52:31.575Z,75.44
2017-07-08T13:53:32.228Z,75.24
2017-07-08T13:54:32.881Z,74.76
2017-07-08T13:56:17.032Z,74.38
2017-07-08T13:57:17.684Z,74.86
2017-07-08T13:58:18.337Z,74.47
2017-07-08T13:59:18.990Z,74.51
2017-07-08T14:01:03.340Z,74.02
2017-07-08T14:02:03.995Z,73.35
2017-07-08T14:03:04.650Z,73.83
2017-07-08T14:04:05.300Z,73.54
2017-07-08T14:05:49.450Z,73.73
2017-07-08T14:06:50.102Z,73.54
2017-07-08T14:07:50.751Z,73.35
2017-07-08T14:08:51.555Z,73.54
2017-07-08T14:10:35.705Z,74.32
2017-07-08T14:11:36.357Z,74.12
2017-07-08T14:12:37.006Z,74.28
2017-07-08T14:13:37.661Z,74.18
2017-07-08T14:15:21.809Z,74.57
2017-07-08T14:16:22.659Z,74.57
2017-07-08T14:17:23.362Z,74.47
2017-07-08T14:18:24.018Z,74.86
2017-07-08T14:20:08.168Z,74.76
2017-07-08T14:21:08.877Z,75.44
2017-07-08T14:22:09.527Z,75.24
2017-07-08T14:23:10.178Z,75.24
2017-07-08T14:24:54.478Z,75.15
2017-07-08T14:25:55.130Z,75.15
2017-07-08T14:26:55.780Z,75.24
2017-07-08T14:27:56.433Z,75.24
2017-07-08T14:29:40.533Z,75.05
2017-07-08T14:30:41.185Z,75.05
2017-07-08T14:31:41.834Z,74.96
2017-07-08T14:32:42.487Z,75.15
2017-07-08T14:34:26.837Z,74.76
2017-07-08T14:35:27.487Z,74.96
2017-07-08T14:36:28.139Z,75.15
2017-07-08T14:37:28.789Z,75.15
2017-07-08T14:39:12.939Z,75.31
2017-07-08T14:40:13.589Z,75.54
2017-07-08T14:41:14.240Z,75.34
2017-07-08T14:42:15.191Z,75.24
2017-07-08T14:43:59.341Z,75.15
2017-07-08T14:44:59.993Z,75.15
2017-07-08T14:46:00.642Z,75.11
2017-07-08T14:47:01.294Z,75.31
2017-07-08T14:48:45.444Z,75.15
2017-07-08T14:49:46.395Z,75.24
2017-07-08T14:50:47.047Z,75.40
2017-07-08T14:51:47.700Z,74.92
2017-07-08T14:53:31.850Z,75.44
2017-07-08T14:54:32.503Z,75.40
2017-07-08T14:55:33.149Z,75.40
2017-07-08T14:56:33.802Z,75.60
2017-07-08T14:58:18.151Z,75.31
2017-07-08T14:59:18.805Z,75.89
2017-07-08T15:00:19.456Z,75.79
2017-07-08T15:01:20.111Z,76.37
2017-07-08T15:03:04.261Z,76.08
2017-07-08T15:04:04.912Z,76.46
2017-07-08T15:05:05.562Z,76.33
2017-07-08T15:06:06.214Z,76.24
2017-07-08T15:07:50.563Z,76.46
2017-07-08T15:08:51.213Z,76.62
2017-07-08T15:09:51.863Z,76.72
2017-07-08T15:10:52.521Z,76.53
2017-07-08T15:12:36.664Z,76.53
2017-07-08T15:13:37.315Z,76.08
2017-07-08T15:14:38.113Z,75.56
2017-07-08T15:15:38.769Z,75.98
2017-07-08T15:17:22.915Z,75.50
2017-07-08T15:18:23.566Z,76.18
2017-07-08T15:19:24.215Z,75.70
2017-07-08T15:20:24.866Z,75.50
2017-07-08T15:22:09.016Z,75.60